createdAt,value
2022-09-04T00:01:23.649Z,32.54
2022-09-04T00:03:58.477Z,31.63
2022-09-04T00:07:14.369Z,31.35
2022-09-04T00:10:20.364Z,33.46
2022-09-04T00:13:04.480Z,31.02
2022-09-04T00:16:09.006Z,30.29
2022-09-04T00:19:08.198Z,29.94
2022-09-04T00:21:50.991Z,29.99
2022-09-04T00:24:26.037Z,29.64
2022-09-04T00:27:27.803Z,30.78
2022-09-04T00:30:16.709Z,30.11
2022-09-04T00:33:03.913Z,29.79
2022-09-04T00:36:02.374Z,30.43
2022-09-04T00:38:46.136Z,30.31
2022-09-04T00:42:12.127Z,33.04
2022-09-04T00:45:27.780Z,32.18
2022-09-04T00:48:52.631Z,31.63
2022-09-04T00:51:37.974Z,30.75
2022-09-04T00:54:52.584Z,32.84
2022-09-04T00:57:48.074Z,32.51
2022-09-04T01:00:20.607Z,30.86
2022-09-04T01:03:48.513Z,31.14
2022-09-04T01:07:01.198Z,34.43
2022-09-04T01:09:50.819Z,33.60
2022-09-04T01:13:03.930Z,32.44
2022-09-04T01:16:22.107Z,31.12
2022-09-04T01:19:15.354Z,31.07
2022-09-04T01:22:46.558Z,33.99
2022-09-04T01:25:30.350Z,32.09
2022-09-04T01:28:16.827Z,31.52
2022-09-04T01:31:01.386Z,30.97
2022-09-04T01:33:48.185Z,31.67
2022-09-04T01:36:41.785Z,32.07
2022-09-04T01:39:09.845Z,31.35
2022-09-04T01:41:51.406Z,32.44
2022-09-04T01:44:19.355Z,31.56
2022-09-04T01:47:25.811Z,31.10
2022-09-04T01:50:11.203Z,31.01
2022-09-04T01:53:01.985Z,30.31
2022-09-04T01:55:41.774Z,31.03
2022-09-04T01:59:11.615Z,30.84
2022-09-04T02:02:08.143Z,31.29
2022-09-04T02:05:48.374Z,31.37
2022-09-04T02:08:55.205Z,31.16
2022-09-04T02:11:28.524Z,31.12
2022-09-04T02:14:40.894Z,34.54
2022-09-04T02:17:20.931Z,32.96
2022-09-04T02:20:23.900Z,33.29
2022-09-04T02:23:07.541Z,33.81
2022-09-04T02:26:02.124Z,33.02
2022-09-04T02:29:15.638Z,35.35
2022-09-04T02:32:12.136Z,34.34
2022-09-04T02:35:04.157Z,32.77
2022-09-04T02:38:05.632Z,31.84
2022-09-04T02:40:56.343Z,32.59
2022-09-04T02:44:22.262Z,31.46
2022-09-04T02:47:25.261Z,31.91
2022-09-04T02:50:47.948Z,32.91
2022-09-04T02:54:02.290Z,32.80
2022-09-04T02:57:00.086Z,32.48
2022-09-04T03:00:21.505Z,31.92
2022-09-04T03:03:00.159Z,32.14
2022-09-04T03:05:43.094Z,32.33
2022-09-04T03:08:43.713Z,31.82
2022-09-04T03:11:35.061Z,33.59
2022-09-04T03:14:16.705Z,32.33
2022-09-04T03:17:21.516Z,32.27
2022-09-04T03:20:13.877Z,33.48
2022-09-04T03:22:55.652Z,33.50
2022-09-04T03:26:10.053Z,33.88
2022-09-04T03:29:15.351Z,34.01
2022-09-04T03:32:25.932Z,40.55
2022-09-04T03:35:08.063Z,41.41
2022-09-04T03:38:05.882Z,39.80
2022-09-04T03:40:50.158Z,35.06
2022-09-04T03:44:23.051Z,35.40
2022-09-04T03:47:32.216Z,33.57
2022-09-04T03:50:44.769Z,35.09
2022-09-04T03:53:44.705Z,36.05
2022-09-04T03:56:54.073Z,36.37
2022-09-04T04:00:18.161Z,34.82
2022-09-04T04:03:49.950Z,34.04
2022-09-04T04:06:46.715Z,33.91
2022-09-04T04:10:12.558Z,35.69
2022-09-04T04:13:23.238Z,33.79
2022-09-04T04:16:40.364Z,33.17
2022-09-04T04:19:36.768Z,33.19
2022-09-04T04:23:05.052Z,33.03
2022-09-04T04:26:07.201Z,32.74
2022-09-04T04:29:08.689Z,32.35
2022-09-04T04:32:10.891Z,32.34
2022-09-04T04:35:11.512Z,33.20
2022-09-04T04:38:11.829Z,32.54
2022-09-04T04:41:55.643Z,32.46
2022-09-04T04:45:41.826Z,32.94
2022-09-04T04:48:46.521Z,32.71
2022-09-04T04:51:57.180Z,32.67
2022-09-04T04:55:41.335Z,32.90
2022-09-04T04:59:06.785Z,32.77
2022-09-04T05:01:56.176Z,32.67
2022-09-04T05:04:54.992Z,32.49
2022-09-04T05:07:37.316Z,34.69
2022-09-04T05:10:47.210Z,35.18
2022-09-04T05:13:48.722Z,35.78
2022-09-04T05:16:59.349Z,34.09
2022-09-04T05:19:47.382Z,33.35
2022-09-04T05:22:42.486Z,32.91
2022-09-04T05:26:00.785Z,32.82
2022-09-04T05:29:06.256Z,32.67
2022-09-04T05:32:28.694Z,32.49
2022-09-04T05:35:45.821Z,35.07
2022-09-04T05:38:31.046Z,34.11
2022-09-04T05:41:26.375Z,34.19
2022-09-04T05:44:58.658Z,34.15
2022-09-04T05:47:50.315Z,34.43
2022-09-04T05:51:02.312Z,33.88
2022-09-04T05:54:18.327Z,34.31
2022-09-04T05:57:21.465Z,34.23
2022-09-04T06:00:14.564Z,33.90
2022-09-04T06:03:34.955Z,33.57
2022-09-04T06:06:52.884Z,33.87
2022-09-04T06:09:53.932Z,34.44
2022-09-04T06:13:01.507Z,34.62
2022-09-04T06:16:29.737Z,33.97
2022-09-04T06:19:39.427Z,34.75
2022-09-04T06:22:29.504Z,38.18
2022-09-04T06:25:37.654Z,37.17
2022-09-04T06:28:55.376Z,37.54
2022-09-04T06:31:39.158Z,38.42
2022-09-04T06:34:43.647Z,38.16
2022-09-04T06:38:23.152Z,37.26
2022-09-04T06:41:47.739Z,36.47
2022-09-04T06:45:05.019Z,35.89
2022-09-04T06:48:13.623Z,39.49
2022-09-04T06:51:52.506Z,39.91
2022-09-04T06:54:34.860Z,40.00
2022-09-04T06:57:40.056Z,38.43
2022-09-04T07:00:12.886Z,38.37
2022-09-04T07:03:38.594Z,39.38
2022-09-04T07:06:24.736Z,39.86
2022-09-04T07:09:14.771Z,39.49
2022-09-04T07:12:29.045Z,40.40
2022-09-04T07:15:48.373Z,40.03
2022-09-04T07:18:56.385Z,39.59
2022-09-04T07:21:43.339Z,39.49
2022-09-04T07:24:32.546Z,40.00
2022-09-04T07:27:17.723Z,40.35
2022-09-04T07:30:20.303Z,41.01
2022-09-04T07:33:02.916Z,40.42
2022-09-04T07:35:44.701Z,39.40
2022-09-04T07:38:50.546Z,39.67
2022-09-04T07:41:49.494Z,41.89
2022-09-04T07:44:33.914Z,40.61
2022-09-04T07:47:43.095Z,41.26
2022-09-04T07:51:03.442Z,42.46
2022-09-04T07:54:22.731Z,41.54
2022-09-04T07:58:03.273Z,42.48
2022-09-04T08:01:08.222Z,40.95
2022-09-04T08:04:22.861Z,40.15
2022-09-04T08:07:01.801Z,39.96
2022-09-04T08:10:14.538Z,39.89
2022-09-04T08:13:22.482Z,40.62
2022-09-04T08:16:38.832Z,40.18
2022-09-04T08:19:22.426Z,41.10
2022-09-04T08:21:53.208Z,40.10
2022-09-04T08:24:46.113Z,40.74
2022-09-04T08:27:50.358Z,39.59
2022-09-04T08:30:21.604Z,41.10
2022-09-04T08:33:33.225Z,40.29
2022-09-04T08:36:38.413Z,40.83
2022-09-04T08:39:11.011Z,40.40
2022-09-04T08:42:20.022Z,41.00
2022-09-04T08:45:46.602Z,40.11
2022-09-04T08:48:52.751Z,40.55
2022-09-04T08:51:39.667Z,40.14
2022-09-04T08:54:57.762Z,40.17
2022-09-04T08:58:07.283Z,39.93
2022-09-04T09:01:23.789Z,39.32
2022-09-04T09:04:36.424Z,39.69
2022-09-04T09:07:43.986Z,39.44
2022-09-04T09:11:03.221Z,39.39
2022-09-04T09:13:46.107Z,38.89
2022-09-04T09:16:50.547Z,39.52
2022-09-04T09:20:29.179Z,39.17
2022-09-04T09:23:21.472Z,39.59
2022-09-04T09:26:26.746Z,39.20
2022-09-04T09:29:39.179Z,38.73
2022-09-04T09:32:28.953Z,39.40
2022-09-04T09:36:09.413Z,39.37
2022-09-04T09:39:53.860Z,38.75
2022-09-04T09:42:59.457Z,38.81
2022-09-04T09:46:02.652Z,39.16
2022-09-04T09:49:17.519Z,38.29
2022-09-04T09:52:43.255Z,37.91
2022-09-04T09:55:53.862Z,38.66
2022-09-04T09:59:26.833Z,37.54
2022-09-04T10:02:30.016Z,37.07
2022-09-04T10:05:52.815Z,37.25
2022-09-04T10:09:30.342Z,37.11
2022-09-04T10:12:27.511Z,37.14
2022-09-04T10:15:07.744Z,36.42
2022-09-04T10:18:02.808Z,36.67
2022-09-04T10:20:55.878Z,36.47
2022-09-04T10:23:36.903Z,36.19
2022-09-04T10:26:15.713Z,35.75
2022-09-04T10:29:14.364Z,35.77
2022-09-04T10:32:35.921Z,35.93
2022-09-04T10:35:47.169Z,35.55
2022-09-04T10:39:28.533Z,34.81
2022-09-04T10:42:48.769Z,33.99
2022-09-04T10:45:31.402Z,32.93
2022-09-04T10:48:36.656Z,31.15
2022-09-04T10:51:52.580Z,30.28
2022-09-04T10:54:35.756Z,29.83
2022-09-04T10:57:52.577Z,30.42
2022-09-04T11:00:30.658Z,28.50
2022-09-04T11:03:32.039Z,27.36
2022-09-04T11:06:23.381Z,27.51
2022-09-04T11:09:36.836Z,27.55
2022-09-04T11:12:25.038Z,27.82
2022-09-04T11:15:16.343Z,26.68
2022-09-04T11:18:33.328Z,26.88
2022-09-04T11:21:25.657Z,26.09
2022-09-04T11:24:27.697Z,26.54
2022-09-04T11:28:12.945Z,24.12
2022-09-04T11:31:07.077Z,25.21
2022-09-04T11:34:14.048Z,25.22
2022-09-04T11:37:15.963Z,24.45
2022-09-04T11:40:18.994Z,23.49
2022-09-04T11:43:37.509Z,22.30
2022-09-04T11:47:16.505Z,24.56
2022-09-04T11:50:14.433Z,23.58
2022-09-04T11:53:13.145Z,23.14
2022-09-04T11:56:08.671Z,23.33
2022-09-04T11:58:51.385Z,23.25
2022-09-04T12:02:15.849Z,22.13
2022-09-04T12:05:39.195Z,22.52
2022-09-04T12:09:05.048Z,22.37
2022-09-04T12:12:18.027Z,22.40
2022-09-04T12:15:22.276Z,22.77
2022-09-04T12:18:45.764Z,20.34
2022-09-04T12:21:43.279Z,21.12
2022-09-04T12:24:40.460Z,22.39
2022-09-04T12:28:05.021Z,21.72
2022-09-04T12:31:51.683Z,21.13
2022-09-04T12:34:48.348Z,21.22
2022-09-04T12:38:08.953Z,21.79
2022-09-04T12:40:47.876Z,21.15
2022-09-04T12:44:02.076Z,20.56
2022-09-04T12:47:19.188Z,20.38
2022-09-04T12:50:34.842Z,20.50
2022-09-04T12:54:04.756Z,20.17
2022-09-04T12:57:08.292Z,18.58
2022-09-04T13:00:10.778Z,19.13
2022-09-04T13:02:49.463Z,19.62
2022-09-04T13:06:06.126Z,19.14
2022-09-04T13:08:57.698Z,18.38
2022-09-04T13:12:01.859Z,18.93
2022-09-04T13:15:19.431Z,18.44
2022-09-04T13:18:21.202Z,17.89
2022-09-04T13:21:23.377Z,18.84
2022-09-04T13:24:09.675Z,17.82
2022-09-04T13:27:32.411Z,17.82
2022-09-04T13:30:25.374Z,17.71
2022-09-04T13:33:16.550Z,18.08
2022-09-04T13:36:19.071Z,17.88
2022-09-04T13:39:01.984Z,18.21
2022-09-04T13:41:54.467Z,17.79
2022-09-04T13:45:15.254Z,16.94
2022-09-04T13:47:58.086Z,18.57
2022-09-04T13:50:44.321Z,18.52
2022-09-04T13:53:24.556Z,18.12
2022-09-04T13:55:59.263Z,18.52
2022-09-04T13:58:33.491Z,17.79
2022-09-04T14:01:13.527Z,18.10
2022-09-04T14:04:00.709Z,17.88
2022-09-04T14:06:32.388Z,17.80
2022-09-04T14:09:04.663Z,17.79
2022-09-04T14:12:19.063Z,16.56
2022-09-04T14:15:23.784Z,16.68
2022-09-04T14:18:48.628Z,17.13
2022-09-04T14:22:36.061Z,17.91
2022-09-04T14:25:38.298Z,18.63
2022-09-04T14:28:51.165Z,18.48
2022-09-04T14:32:05.830Z,18.68
2022-09-04T14:34:57.107Z,18.63
2022-09-04T14:38:32.544Z,18.10
2022-09-04T14:41:20.561Z,18.24
2022-09-04T14:43:59.139Z,18.60
2022-09-04T14:47:02.096Z,18.53
2022-09-04T14:49:31.853Z,17.71
2022-09-04T14:52:14.423Z,17.17
2022-09-04T14:54:46.122Z,17.91
2022-09-04T14:57:50.282Z,17.77
2022-09-04T15:00:20.946Z,19.09
2022-09-04T15:03:15.671Z,18.18
2022-09-04T15:05:55.771Z,19.26
2022-09-04T15:08:40.654Z,19.10
2022-09-04T15:11:31.643Z,18.04
2022-09-04T15:14:32.959Z,18.49
2022-09-04T15:17:06.266Z,18.97
2022-09-04T15:19:55.083Z,18.43
2022-09-04T15:22:33.867Z,19.17
2022-09-04T15:25:56.778Z,19.14
2022-09-04T15:28:30.909Z,19.39
2022-09-04T15:31:27.692Z,19.88
2022-09-04T15:34:28.739Z,20.03
2022-09-04T15:37:23.003Z,20.45
2022-09-04T15:40:13.200Z,20.14
2022-09-04T15:43:09.783Z,20.50
2022-09-04T15:45:57.262Z,20.01
2022-09-04T15:49:03.103Z,19.74
2022-09-04T15:52:39.842Z,20.63
2022-09-04T15:55:31.081Z,20.25
2022-09-04T15:58:19.675Z,20.93
2022-09-04T16:01:16.775Z,21.36
2022-09-04T16:04:12.617Z,21.43
2022-09-04T16:06:54.128Z,21.02
2022-09-04T16:09:36.462Z,21.81
2022-09-04T16:12:24.152Z,21.92
2022-09-04T16:15:22.336Z,21.89
2022-09-04T16:17:55.500Z,22.28
2022-09-04T16:20:58.226Z,22.22
2022-09-04T16:23:38.245Z,22.42
2022-09-04T16:26:19.272Z,22.69
2022-09-04T16:28:55.844Z,22.78
2022-09-04T16:31:32.054Z,23.03
2022-09-04T16:34:32.490Z,23.40
2022-09-04T16:37:36.090Z,23.54
2022-09-04T16:40:39.442Z,23.86
2022-09-04T16:43:25.423Z,23.72
2022-09-04T16:46:07.779Z,23.90
2022-09-04T16:48:52.836Z,25.57
2022-09-04T16:51:49.193Z,24.88
2022-09-04T16:54:33.385Z,24.17
2022-09-04T16:57:18.665Z,24.97
2022-09-04T17:00:14.733Z,24.19
2022-09-04T17:03:16.825Z,24.43
2022-09-04T17:06:23.613Z,24.98
2022-09-04T17:09:28.339Z,24.97
2022-09-04T17:12:17.787Z,25.28
2022-09-04T17:15:21.720Z,25.61
2022-09-04T17:17:51.648Z,25.54
2022-09-04T17:26:21.239Z,25.72
2022-09-04T17:28:58.087Z,25.93
2022-09-04T17:28:59.757Z,26.14
2022-09-04T17:29:53.372Z,26.34
2022-09-04T17:33:35.539Z,26.43
2022-09-04T17:40:43.467Z,26.69
2022-09-04T17:40:54.949Z,26.57
2022-09-04T17:42:09.343Z,26.69
2022-09-04T17:45:12.023Z,26.88
2022-09-04T17:47:42.727Z,27.10
2022-09-04T17:50:24.497Z,27.27
2022-09-04T17:53:03.098Z,27.11
2022-09-04T17:55:38.855Z,27.54
2022-09-04T17:59:07.744Z,27.39
2022-09-04T18:01:51.645Z,27.61
2022-09-04T18:04:47.087Z,27.85
2022-09-04T18:08:09.977Z,28.18
2022-09-04T18:10:45.796Z,28.48
2022-09-04T18:14:02.083Z,28.38
2022-09-04T18:16:35.971Z,28.65
2022-09-04T18:19:32.441Z,28.19
2022-09-04T18:22:33.556Z,29.22
2022-09-04T18:25:50.843Z,28.49
2022-09-04T18:30:10.055Z,28.82
2022-09-04T18:37:13.024Z,28.74
2022-09-04T18:37:17.614Z,28.82
2022-09-04T18:39:32.439Z,28.91
2022-09-04T18:49:23.835Z,28.64
2022-09-04T18:50:28.112Z,28.85
2022-09-04T18:50:45.997Z,29.46
2022-09-04T18:51:24.833Z,29.17
2022-09-04T18:54:30.409Z,29.40
2022-09-04T18:57:21.006Z,29.28
2022-09-04T19:00:08.195Z,29.23
2022-09-04T19:02:53.797Z,29.43
2022-09-04T19:05:24.508Z,30.52
2022-09-04T19:07:57.282Z,30.05
2022-09-04T19:11:17.464Z,29.66
2022-09-04T19:14:10.600Z,30.09
2022-09-04T19:16:55.458Z,29.63
2022-09-04T19:19:35.613Z,32.99
2022-09-04T19:22:28.521Z,30.62
2022-09-04T19:25:27.416Z,30.23
2022-09-04T19:28:18.799Z,32.34
2022-09-04T19:30:47.137Z,32.40
2022-09-04T19:33:42.014Z,35.55
2022-09-04T19:36:23.403Z,35.52
2022-09-04T19:45:44.403Z,31.60
2022-09-04T19:46:17.788Z,32.27
2022-09-04T19:52:48.255Z,31.37
2022-09-04T19:53:30.629Z,32.69
2022-09-04T19:56:11.564Z,32.37
2022-09-04T19:59:04.549Z,31.31
2022-09-04T20:02:03.261Z,31.93
2022-09-04T20:04:41.739Z,31.54
2022-09-04T20:07:49.215Z,32.63
2022-09-04T20:10:50.399Z,37.92
2022-09-04T20:13:48.888Z,34.84
2022-09-04T20:16:30.837Z,33.35
2022-09-04T20:19:46.265Z,33.84
2022-09-04T20:22:46.245Z,33.64
2022-09-04T20:26:04.272Z,33.60
2022-09-04T20:29:17.876Z,31.98
2022-09-04T20:31:52.981Z,34.36
2022-09-04T20:34:31.174Z,32.48
2022-09-04T20:37:44.595Z,34.39
2022-09-04T20:40:42.061Z,33.51
2022-09-04T20:43:27.462Z,35.06
2022-09-04T20:48:17.397Z,33.01
2022-09-04T20:52:49.564Z,31.72
2022-09-04T20:53:05.208Z,34.77
2022-09-04T20:55:05.103Z,38.44
2022-09-04T21:03:11.045Z,33.04
2022-09-04T21:03:21.971Z,33.84
2022-09-04T21:04:25.010Z,32.71
2022-09-04T21:07:33.431Z,33.28
2022-09-04T21:10:31.897Z,34.13
2022-09-04T21:13:14.066Z,33.48
2022-09-04T21:15:52.652Z,34.64
2022-09-04T21:18:32.388Z,33.99
2022-09-04T21:21:51.905Z,34.44
2022-09-04T21:24:44.877Z,33.05
2022-09-04T21:27:49.435Z,32.73
2022-09-04T21:31:09.367Z,34.21
2022-09-04T21:34:24.729Z,32.74
2022-09-04T21:37:13.132Z,33.38
2022-09-04T21:40:31.038Z,32.98
2022-09-04T21:43:35.754Z,31.72
2022-09-04T21:46:31.465Z,31.67
2022-09-04T21:49:08.179Z,31.68
2022-09-04T21:52:03.924Z,31.24
2022-09-04T21:58:58.628Z,31.70
2022-09-04T22:02:27.527Z,31.66
2022-09-04T22:02:57.635Z,31.55
2022-09-04T22:06:05.690Z,31.20
2022-09-04T22:13:30.542Z,31.47
2022-09-04T22:13:38.743Z,33.73
2022-09-04T22:15:11.326Z,32.53
2022-09-04T22:18:40.456Z,32.43
2022-09-04T22:21:55.430Z,32.04
2022-09-04T22:25:35.279Z,31.91
2022-09-04T22:28:41.817Z,31.86
2022-09-04T22:32:06.842Z,32.02
2022-09-04T22:35:17.150Z,34.87
2022-09-04T22:38:11.361Z,34.04
2022-09-04T22:41:03.133Z,33.93
2022-09-04T22:43:46.819Z,34.80
2022-09-04T22:46:42.970Z,34.65
2022-09-04T22:49:29.652Z,34.70
2022-09-04T22:52:37.675Z,34.45
2022-09-04T22:56:06.641Z,36.31
2022-09-04T22:58:53.427Z,34.20
2022-09-04T23:02:14.120Z,33.89
2022-09-04T23:05:20.813Z,35.27
2022-09-04T23:13:49.733Z,36.26
2022-09-04T23:13:52.518Z,35.27
2022-09-04T23:15:23.429Z,35.74
2022-09-04T23:22:35.469Z,36.43
2022-09-04T23:26:36.245Z,36.07
2022-09-04T23:26:46.043Z,37.17
2022-09-04T23:29:08.558Z,36.20
2022-09-04T23:31:51.988Z,35.54
2022-09-04T23:35:14.297Z,34.55
2022-09-04T23:38:10.679Z,34.20
2022-09-04T23:40:59.276Z,34.69
2022-09-04T23:44:25.697Z,35.31
2022-09-04T23:47:47.031Z,34.57
2022-09-04T23:50:31.118Z,33.83
2022-09-04T23:53:37.431Z,33.87
2022-09-04T23:56:29.937Z,33.43
2022-09-04T23:59:27.367Z,33.23
